Time;durP1;ratioP1;P1;durP2;ratioP2;P2;SDS_P1;SDS_P2;PMS_P1;PMS_P2;Temp;Humidity;BMP_temperature;BMP_pressure;BME280_temperature;BME280_humidity;BME280_pressure;Samples;Min_cycle;Max_cycle;Signal;HPM_P1;HPM_P2
2021/11/13 00:01:18;;;;;;;;;;;;;;;1.83;84.36;96393.50;5073936;28;19961;-76
2021/11/13 00:03:44;;;;;;;;;;;;;;;1.83;83.94;96393.50;5074204;28;19984;-75
2021/11/13 00:06:10;;;;;;;;;;;;;;;1.83;83.87;96383.94;5074294;28;20049;-75
2021/11/13 00:08:36;;;;;;;;;;;;;;;1.81;83.97;96372.97;5074022;28;20330;-75
2021/11/13 00:11:02;;;;;;;;;;;;;;;1.85;83.94;96375.22;5073918;28;19958;-74
2021/11/13 00:13:29;;;;;;;;;;;;;;;1.85;84.36;96373.44;5073808;28;20328;-74
2021/11/13 00:15:55;;;;;;;;;;;;;;;1.86;84.76;96367.28;5073799;28;19960;-74
2021/11/13 00:18:21;;;;;;;;;;;;;;;1.87;84.84;96365.50;5073873;28;19956;-75
2021/11/13 00:20:50;;;;;;;;;;;;;;;1.88;84.95;96375.69;5073592;28;19976;-76
2021/11/13 00:23:19;;;;;;;;;;;;;;;1.91;84.80;96377.97;5073598;28;19965;-77
2021/11/13 00:25:45;;;;;;;;;;;;;;;1.94;85.01;96369.88;5073684;28;19952;-76
2021/11/13 00:28:12;;;;;;;;;;;;;;;1.96;84.97;96367.91;5072745;28;20317;-76
2021/11/13 00:30:41;;;;;;;;;;;;;;;1.98;84.67;96368.56;5073750;28;20302;-75
2021/11/13 00:33:07;;;;;;;;;;;;;;;2.00;84.61;96376.97;5073924;28;20299;-76
2021/11/13 00:35:33;;;;;;;;;;;;;;;2.00;84.25;96371.00;5073481;28;19961;-76
2021/11/13 00:37:59;;;;;;;;;;;;;;;2.00;84.16;96379.53;5073588;28;19968;-75
2021/11/13 00:40:25;;;;;;;;;;;;;;;2.00;84.18;96383.91;5073300;28;20407;-76
2021/11/13 00:42:51;;;;;;;;;;;;;;;1.99;84.31;96385.69;5073929;28;19952;-77
2021/11/13 00:45:17;;;;;;;;;;;;;;;2.01;84.55;96372.59;5073476;28;20404;-77
2021/11/13 00:47:43;;;;;;;;;;;;;;;2.00;84.47;96376.16;5073741;28;20401;-77
2021/11/13 00:50:10;;;;;;;;;;;;;;;2.00;84.39;96368.41;5072250;28;19961;-74
2021/11/13 00:52:37;;;;;;;;;;;;;;;1.98;84.01;96367.75;5073492;28;19960;-74
2021/11/13 00:55:03;;;;;;;;;;;;;;;1.97;83.89;96373.88;5073352;28;20000;-74
2021/11/13 00:57:29;;;;;;;;;;;;;;;1.95;83.62;96361.16;5073629;28;20405;-74
2021/11/13 00:59:55;;;;;;;;;;;;;;;1.94;83.59;96361.31;5073382;28;19967;-75
2021/11/13 01:02:20;;;;;;;;;;;;;;;1.93;83.44;96359.69;5073121;28;20451;-74
2021/11/13 01:04:46;;;;;;;;;;;;;;;1.90;83.11;96347.88;5073517;28;19986;-75
2021/11/13 01:07:12;;;;;;;;;;;;;;;1.91;83.19;96349.53;5073522;28;19980;-74
2021/11/13 01:09:38;;;;;;;;;;;;;;;1.90;83.27;96353.06;5073196;28;20484;-75
2021/11/13 01:12:05;;;;;;;;;;;;;;;1.90;83.29;96352.25;5073456;28;19968;-75
2021/11/13 01:14:33;;;;;;;;;;;;;;;1.93;83.45;96359.69;5072011;28;19958;-75
2021/11/13 01:16:58;;;;;;;;;;;;;;;1.92;83.89;96352.91;5073133;28;20302;-75
2021/11/13 01:19:24;;;;;;;;;;;;;;;1.93;83.75;96359.69;5073326;28;19956;-75
2021/11/13 01:21:50;;;;;;;;;;;;;;;1.92;84.15;96351.13;5073373;28;20042;-75
2021/11/13 01:24:16;;;;;;;;;;;;;;;1.94;84.71;96362.09;5073282;28;19962;-75
2021/11/13 01:26:42;;;;;;;;;;;;;;;1.96;84.84;96364.53;5072997;28;20415;-75
2021/11/13 01:29:08;;;;;;;;;;;;;;;1.96;84.88;96367.13;5073399;28;20002;-75
2021/11/13 01:31:34;;;;;;;;;;;;;;;1.94;84.52;96364.69;5073229;28;20417;-75
2021/11/13 01:34:00;;;;;;;;;;;;;;;1.94;84.31;96369.88;5073352;28;19969;-75
2021/11/13 01:36:26;;;;;;;;;;;;;;;1.94;83.77;96382.78;5072115;28;20034;-75
2021/11/13 01:38:54;;;;;;;;;;;;;;;1.90;83.51;96372.94;5073402;28;19951;-75
2021/11/13 01:41:20;;;;;;;;;;;;;;;1.86;83.30;96382.81;5072930;28;19977;-75
2021/11/13 01:43:46;;;;;;;;;;;;;;;1.83;83.29;96391.72;5072423;28;19955;-75
2021/11/13 01:46:12;;;;;;;;;;;;;;;1.78;84.02;96382.81;5073469;28;19961;-75
2021/11/13 01:48:38;;;;;;;;;;;;;;;1.71;84.24;96395.59;5073477;28;20048;-75
2021/11/13 01:51:33;;;;;;;;;;;;;;;1.61;84.87;96395.75;5076475;28;19959;-75
2021/11/13 01:54:04;;;;;;;;;;;;;;;1.56;85.76;96382.53;5071858;28;20456;-75
2021/11/13 01:56:30;;;;;;;;;;;;;;;1.55;86.61;96385.25;5076370;28;20333;-75
2021/11/13 01:58:57;;;;;;;;;;;;;;;1.55;87.52;96387.84;5076608;28;19957;-75
2021/11/13 02:01:23;;;;;;;;;;;;;;;1.56;87.72;96382.53;5076463;28;19964;-75
2021/11/13 02:03:50;;;;;;;;;;;;;;;1.58;87.72;96392.72;5076014;28;19961;-76
2021/11/13 02:06:16;;;;;;;;;;;;;;;1.61;87.36;96382.84;5076412;28;19958;-75
2021/11/13 02:08:43;;;;;;;;;;;;;;;1.66;87.59;96377.19;5076127;28;19953;-76
2021/11/13 02:11:10;;;;;;;;;;;;;;;1.67;86.81;96371.03;5076227;28;19960;-76
2021/11/13 02:13:36;;;;;;;;;;;;;;;1.70;86.60;96380.25;5076189;28;19958;-77
2021/11/13 02:16:02;;;;;;;;;;;;;;;1.72;86.09;96373.97;5076167;28;20447;-76
2021/11/13 02:18:28;;;;;;;;;;;;;;;1.75;86.21;96371.03;5076273;28;19955;-76
2021/11/13 02:20:54;;;;;;;;;;;;;;;1.76;85.68;96377.81;5075889;28;19960;-78
2021/11/13 02:23:21;;;;;;;;;;;;;;;1.76;85.52;96385.56;5076352;28;20342;-79
2021/11/13 02:25:48;;;;;;;;;;;;;;;1.77;85.29;96387.19;5076470;28;20312;-79
2021/11/13 02:28:15;;;;;;;;;;;;;;;1.77;84.97;96388.97;5075712;28;20343;-79
2021/11/13 02:30:42;;;;;;;;;;;;;;;1.75;84.57;96386.53;5075885;28;19986;-78
2021/11/13 02:33:09;;;;;;;;;;;;;;;1.76;84.56;96395.09;5076250;28;19963;-78
2021/11/13 02:35:35;;;;;;;;;;;;;;;1.73;84.21;96393.66;5075564;28;19982;-75
2021/11/13 02:38:10;;;;;;;;;;;;;;;1.72;84.08;96394.63;5075820;28;19965;-75
2021/11/13 02:40:36;;;;;;;;;;;;;;;1.72;83.81;96402.41;5075386;28;19953;-75
2021/11/13 02:43:02;;;;;;;;;;;;;;;1.66;83.89;96387.53;5075411;28;19968;-75
2021/11/13 02:45:28;;;;;;;;;;;;;;;1.57;83.90;96389.28;5075868;28;20013;-74
2021/11/13 02:47:55;;;;;;;;;;;;;;;1.55;84.21;96395.59;5075784;28;19954;-75
2021/11/13 02:50:21;;;;;;;;;;;;;;;1.54;83.83;96396.59;5075586;28;20301;-76
2021/11/13 02:52:52;;;;;;;;;;;;;;;1.53;83.94;96385.41;5075406;28;19960;-75
2021/11/13 02:55:18;;;;;;;;;;;;;;;1.55;84.08;96385.25;5075458;28;19974;-75
2021/11/13 02:57:44;;;;;;;;;;;;;;;1.53;83.78;96390.59;5075364;28;20327;-74
2021/11/13 03:00:12;;;;;;;;;;;;;;;1.52;83.60;96394.16;5074279;28;19962;-75
2021/11/13 03:02:38;;;;;;;;;;;;;;;1.51;83.47;96404.66;5074813;28;19969;-75
2021/11/13 03:05:05;;;;;;;;;;;;;;;1.50;83.56;96403.84;5075087;28;20438;-75
2021/11/13 03:07:31;;;;;;;;;;;;;;;1.49;83.36;96414.34;5075203;28;19957;-74
2021/11/13 03:09:57;;;;;;;;;;;;;;;1.47;83.29;96424.84;5075029;28;20400;-75
2021/11/13 03:12:23;;;;;;;;;;;;;;;1.44;83.19;96421.78;5075071;28;19953;-75
2021/11/13 03:14:49;;;;;;;;;;;;;;;1.40;83.09;96419.50;5075023;28;20007;-75
2021/11/13 03:17:14;;;;;;;;;;;;;;;1.38;83.21;96423.22;5074926;28;19972;-76
2021/11/13 03:19:40;;;;;;;;;;;;;;;1.34;83.10;96429.69;5073921;28;19956;-76
2021/11/13 03:22:07;;;;;;;;;;;;;;;1.32;82.91;96426.44;5074878;28;19995;-77
2021/11/13 03:24:33;;;;;;;;;;;;;;;1.28;82.85;96423.41;5075493;28;20387;-76
2021/11/13 03:27:00;;;;;;;;;;;;;;;1.29;82.88;96426.78;5074386;28;20008;-77
2021/11/13 03:29:31;;;;;;;;;;;;;;;1.29;82.73;96421.59;5074567;28;19953;-76
2021/11/13 03:31:57;;;;;;;;;;;;;;;1.25;82.96;96415.94;5074884;28;19955;-76
2021/11/13 03:34:23;;;;;;;;;;;;;;;1.25;83.13;96410.78;5075024;28;20419;-76
2021/11/13 03:36:49;;;;;;;;;;;;;;;1.23;83.17;96411.91;5074480;28;20053;-76
2021/11/13 03:39:15;;;;;;;;;;;;;;;1.23;83.11;96410.13;5074477;28;20015;-76
2021/11/13 03:41:41;;;;;;;;;;;;;;;1.22;83.17;96408.53;5074520;28;19967;-75
2021/11/13 03:44:07;;;;;;;;;;;;;;;1.21;83.21;96406.91;5074308;28;20330;-76
2021/11/13 03:46:32;;;;;;;;;;;;;;;1.23;83.44;96407.53;5074344;28;20001;-75
2021/11/13 03:48:58;;;;;;;;;;;;;;;1.21;83.27;96418.03;5074293;28;20329;-76
2021/11/13 03:51:25;;;;;;;;;;;;;;;1.20;83.40;96411.25;5074463;28;20003;-75
2021/11/13 03:53:51;;;;;;;;;;;;;;;1.20;83.65;96408.69;5074124;28;20392;-75
2021/11/13 03:56:17;;;;;;;;;;;;;;;1.21;83.89;96406.91;5074224;28;19960;-75
2021/11/13 03:58:43;;;;;;;;;;;;;;;1.23;84.17;96401.59;5074126;28;19960;-75
2021/11/13 04:01:09;;;;;;;;;;;;;;;1.24;84.18;96404.00;5072781;28;20045;-75
2021/11/13 04:03:35;;;;;;;;;;;;;;;1.23;84.29;96404.97;5074221;28;19958;-75
2021/11/13 04:06:01;;;;;;;;;;;;;;;1.24;84.39;96409.19;5074165;28;20016;-75
2021/11/13 04:08:27;;;;;;;;;;;;;;;1.24;84.05;96416.09;5073916;28;19959;-75
2021/11/13 04:10:53;;;;;;;;;;;;;;;1.25;84.18;96428.88;5073932;28;20072;-75
2021/11/13 04:13:19;;;;;;;;;;;;;;;1.25;84.25;96418.53;5073622;28;20048;-75
2021/11/13 04:15:45;;;;;;;;;;;;;;;1.27;83.86;96421.75;5073899;28;20422;-76
2021/11/13 04:18:11;;;;;;;;;;;;;;;1.28;83.83;96420.81;5073969;28;19984;-75
2021/11/13 04:20:36;;;;;;;;;;;;;;;1.28;83.93;96417.41;5073224;28;20293;-75
2021/11/13 04:23:02;;;;;;;;;;;;;;;1.25;83.16;96410.78;5074092;28;20037;-75
2021/11/13 04:25:28;;;;;;;;;;;;;;;1.20;83.33;96407.88;5073942;28;19949;-75
2021/11/13 04:27:54;;;;;;;;;;;;;;;1.15;83.58;96407.53;5074167;28;19947;-75
2021/11/13 04:30:20;;;;;;;;;;;;;;;1.15;83.89;96410.91;5073763;28;20005;-76
2021/11/13 04:32:47;;;;;;;;;;;;;;;1.18;84.14;96394.31;5073669;28;19958;-76
2021/11/13 04:35:22;;;;;;;;;;;;;;;1.22;84.02;96398.19;5061137;28;20027;-75
2021/11/13 04:37:55;;;;;;;;;;;;;;;1.24;84.30;96392.84;5073839;28;19952;-75
2021/11/13 04:40:27;;;;;;;;;;;;;;;1.27;84.65;96401.09;5073615;28;19949;-75
2021/11/13 04:42:53;;;;;;;;;;;;;;;1.32;84.66;96390.28;5073466;28;19958;-77
2021/11/13 04:45:19;;;;;;;;;;;;;;;1.34;84.92;96380.59;5073626;28;19963;-78
2021/11/13 04:47:45;;;;;;;;;;;;;;;1.39;85.07;96379.16;5073867;28;20046;-77
2021/11/13 04:50:12;;;;;;;;;;;;;;;1.44;85.49;96377.84;5073550;28;19978;-78
2021/11/13 04:52:38;;;;;;;;;;;;;;;1.49;85.80;96375.56;5073725;28;19959;-75
2021/11/13 04:55:05;;;;;;;;;;;;;;;1.53;85.98;96376.88;5073296;28;20353;-75
2021/11/13 04:57:31;;;;;;;;;;;;;;;1.57;86.13;96389.28;5073242;28;19953;-75
2021/11/13 04:59:57;;;;;;;;;;;;;;;1.60;85.99;96385.59;5073591;28;19970;-75
2021/11/13 05:02:23;;;;;;;;;;;;;;;1.62;86.02;96384.47;5073026;28;20017;-75
2021/11/13 05:04:54;;;;;;;;;;;;;;;1.62;85.82;96391.41;5073212;28;19970;-78
2021/11/13 05:07:21;;;;;;;;;;;;;;;1.60;85.18;96390.78;5073671;28;20310;-78
2021/11/13 05:09:47;;;;;;;;;;;;;;;1.56;84.53;96397.22;5073309;28;20318;-78
2021/11/13 05:12:13;;;;;;;;;;;;;;;1.52;84.36;96394.16;5073419;28;19969;-78
2021/11/13 05:14:38;;;;;;;;;;;;;;;1.49;84.57;96397.09;5073102;28;20003;-78
2021/11/13 05:17:04;;;;;;;;;;;;;;;1.50;84.41;96397.88;5073829;28;19956;-78
2021/11/13 05:19:30;;;;;;;;;;;;;;;1.48;84.44;96399.81;5073224;28;19953;-78
2021/11/13 05:21:56;;;;;;;;;;;;;;;1.50;84.56;96408.22;5073292;28;19999;-79
2021/11/13 05:24:22;;;;;;;;;;;;;;;1.51;84.66;96409.81;5074916;28;19957;-77
2021/11/13 05:26:48;;;;;;;;;;;;;;;1.51;84.78;96410.66;5077189;28;19990;-77
2021/11/13 05:29:14;;;;;;;;;;;;;;;1.54;84.81;96422.44;5077498;28;20005;-77
2021/11/13 05:31:40;;;;;;;;;;;;;;;1.56;84.54;96423.09;5077082;28;20068;-76
2021/11/13 05:34:06;;;;;;;;;;;;;;;1.57;84.76;96412.56;5076969;28;19958;-77
2021/11/13 05:36:32;;;;;;;;;;;;;;;1.59;84.71;96407.22;5077184;28;19999;-76
2021/11/13 05:38:58;;;;;;;;;;;;;;;1.60;84.97;96419.19;5076677;28;19960;-77
2021/11/13 05:41:23;;;;;;;;;;;;;;;1.61;84.88;96415.63;5076600;28;19963;-77
2021/11/13 05:43:49;;;;;;;;;;;;;;;1.60;85.03;96412.25;5076515;28;20052;-81
2021/11/13 05:46:15;;;;;;;;;;;;;;;1.62;85.04;96414.69;5077235;28;19961;-78
2021/11/13 05:48:42;;;;;;;;;;;;;;;1.61;85.02;96413.84;5076820;28;19964;-78
2021/11/13 05:51:08;;;;;;;;;;;;;;;1.62;85.05;96412.91;5076591;28;19953;-77
2021/11/13 05:53:34;;;;;;;;;;;;;;;1.65;85.13;96413.53;5075170;28;19960;-78
2021/11/13 05:56:00;;;;;;;;;;;;;;;1.68;85.17;96408.03;5076430;28;19957;-77
2021/11/13 05:58:26;;;;;;;;;;;;;;;1.68;85.20;96403.69;5076607;28;20303;-76
2021/11/13 06:00:52;;;;;;;;;;;;;;;1.69;85.29;96410.47;5075563;28;20005;-77
2021/11/13 06:03:18;;;;;;;;;;;;;;;1.71;85.39;96405.13;5076350;28;20315;-77
2021/11/13 06:05:44;;;;;;;;;;;;;;;1.74;85.81;96410.81;5076477;28;20056;-78
2021/11/13 06:08:10;;;;;;;;;;;;;;;1.75;86.11;96401.25;5076405;28;19960;-78
2021/11/13 06:10:37;;;;;;;;;;;;;;;1.78;86.24;96406.88;5076012;28;19953;-78
2021/11/13 06:13:03;;;;;;;;;;;;;;;1.81;86.57;96406.56;5076065;28;19960;-76
2021/11/13 06:15:29;;;;;;;;;;;;;;;1.86;86.61;96415.63;5076206;28;19948;-75
2021/11/13 06:17:55;;;;;;;;;;;;;;;1.87;86.94;96412.06;5076306;28;19955;-75
2021/11/13 06:20:21;;;;;;;;;;;;;;;1.92;86.99;96412.38;5075924;28;19966;-75
2021/11/13 06:22:47;;;;;;;;;;;;;;;1.95;86.89;96409.44;5075684;28;19976;-75
2021/11/13 06:25:13;;;;;;;;;;;;;;;1.99;86.90;96413.31;5075787;28;19965;-76
2021/11/13 06:27:39;;;;;;;;;;;;;;;2.03;87.37;96417.19;5076006;28;20429;-77
2021/11/13 06:30:06;;;;;;;;;;;;;;;2.07;87.16;96407.34;5076471;28;19953;-77
2021/11/13 06:32:32;;;;;;;;;;;;;;;2.09;87.02;96413.97;5075723;28;19959;-76
2021/11/13 06:34:59;;;;;;;;;;;;;;;2.12;87.10;96407.63;5075335;28;19962;-77
2021/11/13 06:37:26;;;;;;;;;;;;;;;2.12;86.43;96407.63;5075910;28;19948;-76
2021/11/13 06:39:52;;;;;;;;;;;;;;;2.12;86.28;96405.06;5075785;28;19951;-76
2021/11/13 06:42:18;;;;;;;;;;;;;;;2.14;86.14;96416.03;5075526;28;19981;-76
2021/11/13 06:44:44;;;;;;;;;;;;;;;2.13;85.53;96412.66;5075820;28;19987;-76
2021/11/13 06:47:10;;;;;;;;;;;;;;;2.10;85.38;96417.34;5075547;28;20005;-75
2021/11/13 06:49:35;;;;;;;;;;;;;;;2.07;85.38;96407.34;5075652;28;20046;-75
2021/11/13 06:52:01;;;;;;;;;;;;;;;2.05;85.40;96404.91;5074655;28;19958;-76
2021/11/13 06:54:27;;;;;;;;;;;;;;;2.03;84.81;96412.81;5075322;28;19990;-76
2021/11/13 06:56:53;;;;;;;;;;;;;;;2.00;84.82;96410.59;5075603;28;19969;-75
2021/11/13 06:59:20;;;;;;;;;;;;;;;2.00;85.32;96414.97;5075229;28;19964;-75
2021/11/13 07:01:46;;;;;;;;;;;;;;;2.01;85.28;96406.22;5075719;28;20415;-75
2021/11/13 07:04:12;;;;;;;;;;;;;;;2.02;85.55;96410.44;5075194;28;19956;-75
2021/11/13 07:06:38;;;;;;;;;;;;;;;2.02;85.56;96410.44;5074055;28;20317;-75
2021/11/13 07:09:04;;;;;;;;;;;;;;;2.00;85.09;96405.41;5074936;28;19960;-75
2021/11/13 07:11:30;;;;;;;;;;;;;;;1.98;84.79;96424.66;5074922;28;19951;-75
2021/11/13 07:13:55;;;;;;;;;;;;;;;1.95;84.32;96419.81;5075371;28;19954;-77
2021/11/13 07:16:21;;;;;;;;;;;;;;;1.89;84.16;96416.09;5075180;28;19957;-76
2021/11/13 07:18:47;;;;;;;;;;;;;;;1.85;84.75;96421.75;5074952;28;20003;-76
2021/11/13 07:21:13;;;;;;;;;;;;;;;1.85;85.01;96420.00;5073775;28;19952;-76
2021/11/13 07:23:39;;;;;;;;;;;;;;;1.92;90.61;96422.72;5074824;28;19969;-76
2021/11/13 07:26:06;;;;;;;;;;;;;;;2.21;94.76;96427.38;5074897;28;19957;-76
2021/11/13 07:28:41;;;;;;;;;;;;;;;2.36;92.28;96430.88;5074625;28;19956;-75
2021/11/13 07:31:08;;;;;;;;;;;;;;;2.96;100.00;96426.09;5074957;28;19956;-76
2021/11/13 07:33:34;;;;;;;;;;;;;;;3.08;91.62;96432.50;5074516;28;19959;-75
2021/11/13 07:36:00;;;;;;;;;;;;;;;3.09;85.80;96433.28;5074387;28;19950;-75
2021/11/13 07:38:26;;;;;;;;;;;;;;;3.07;83.79;96430.06;5074772;28;20037;-75
2021/11/13 07:40:52;;;;;;;;;;;;;;;2.98;82.94;96432.72;5074392;28;19958;-75
2021/11/13 07:43:18;;;;;;;;;;;;;;;2.90;82.51;96429.34;5074124;28;19970;-75
2021/11/13 07:45:44;;;;;;;;;;;;;;;2.83;82.67;96429.22;5074619;28;20374;-75
2021/11/13 07:48:10;;;;;;;;;;;;;;;2.76;82.48;96426.50;5073768;28;19953;-75
2021/11/13 07:50:36;;;;;;;;;;;;;;;2.71;82.49;96423.63;5074161;28;19998;-75
2021/11/13 07:53:03;;;;;;;;;;;;;;;2.68;82.63;96428.34;5074250;28;20454;-75
2021/11/13 07:55:29;;;;;;;;;;;;;;;2.64;83.07;96427.84;5074276;28;19976;-75
2021/11/13 07:57:55;;;;;;;;;;;;;;;2.66;83.00;96423.31;5074214;28;19960;-75
2021/11/13 08:00:21;;;;;;;;;;;;;;;2.68;83.20;96429.13;5074207;28;20000;-76
2021/11/13 08:02:47;;;;;;;;;;;;;;;2.73;83.49;96424.28;5074133;28;20454;-75
2021/11/13 08:05:14;;;;;;;;;;;;;;;2.80;83.49;96430.38;5074145;28;19967;-75
2021/11/13 08:07:40;;;;;;;;;;;;;;;2.94;83.93;96428.88;5073902;28;19961;-75
2021/11/13 08:10:06;;;;;;;;;;;;;;;3.04;83.86;96426.03;5074124;28;19960;-75
2021/11/13 08:12:32;;;;;;;;;;;;;;;3.05;84.04;96425.06;5073977;28;19951;-75
2021/11/13 08:14:58;;;;;;;;;;;;;;;3.07;83.07;96419.69;5073974;28;19962;-76
2021/11/13 08:17:24;;;;;;;;;;;;;;;3.10;83.21;96421.97;5074255;28;19960;-75
2021/11/13 08:19:50;;;;;;;;;;;;;;;3.12;83.53;96430.38;5074018;28;20062;-75
2021/11/13 08:22:16;;;;;;;;;;;;;;;3.14;83.86;96429.22;5073628;28;19951;-75
2021/11/13 08:24:42;;;;;;;;;;;;;;;3.17;83.77;96412.50;5072589;28;19971;-75
2021/11/13 08:27:09;;;;;;;;;;;;;;;3.18;83.39;96421.91;5073915;28;19957;-75
2021/11/13 08:29:35;;;;;;;;;;;;;;;3.19;83.64;96420.94;5073826;28;19952;-75
2021/11/13 08:32:02;;;;;;;;;;;;;;;3.24;83.37;96423.81;5073876;28;19967;-76
2021/11/13 08:34:28;;;;;;;;;;;;;;;3.28;83.65;96429.47;5073882;28;19952;-75
2021/11/13 08:36:54;;;;;;;;;;;;;;;3.30;83.87;96432.69;5073700;28;20013;-75
2021/11/13 08:39:22;;;;;;;;;;;;;;;3.39;83.82;96436.84;5073525;28;20038;-75
2021/11/13 08:41:48;;;;;;;;;;;;;;;3.53;84.46;96436.09;5073725;28;19956;-75
2021/11/13 08:44:14;;;;;;;;;;;;;;;3.64;84.24;96432.28;5073433;28;19966;-75
2021/11/13 08:46:40;;;;;;;;;;;;;;;3.72;83.42;96424.44;5073459;28;19960;-75
2021/11/13 08:49:06;;;;;;;;;;;;;;;3.79;83.55;96430.53;5073859;28;20404;-75
2021/11/13 08:51:32;;;;;;;;;;;;;;;3.90;83.67;96426.69;5073473;28;19965;-76
2021/11/13 08:53:58;;;;;;;;;;;;;;;4.02;84.22;96424.50;5073870;28;20031;-75
2021/11/13 08:56:29;;;;;;;;;;;;;;;4.10;82.69;96421.81;5073504;28;19957;-75
2021/11/13 08:58:57;;;;;;;;;;;;;;;4.17;82.05;96416.72;5076353;28;19982;-75
2021/11/13 09:01:24;;;;;;;;;;;;;;;4.21;82.51;96411.00;5077491;28;19959;-76
2021/11/13 09:03:51;;;;;;;;;;;;;;;4.28;81.58;96411.06;5077870;28;19974;-75
2021/11/13 09:06:21;;;;;;;;;;;;;;;4.39;80.36;96407.22;5077350;28;19957;-76
2021/11/13 09:08:47;;;;;;;;;;;;;;;4.46;79.85;96402.94;5077599;28;19950;-75
2021/11/13 09:11:17;;;;;;;;;;;;;;;4.67;80.62;96413.41;5077371;28;19960;-75
2021/11/13 09:13:43;;;;;;;;;;;;;;;5.02;80.15;96410.22;5077330;28;20424;-76
2021/11/13 09:16:10;;;;;;;;;;;;;;;5.35;78.12;96407.91;5076815;28;20322;-73
2021/11/13 09:18:36;;;;;;;;;;;;;;;5.61;77.28;96409.19;5077304;28;19967;-73
2021/11/13 09:21:02;;;;;;;;;;;;;;;5.82;76.29;96408.34;5077564;28;19959;-73
2021/11/13 09:23:28;;;;;;;;;;;;;;;6.03;75.64;96405.72;5077230;28;20450;-73
2021/11/13 09:25:54;;;;;;;;;;;;;;;6.34;75.39;96406.31;5076955;28;19964;-73
2021/11/13 09:28:20;;;;;;;;;;;;;;;6.46;74.38;96415.19;5077101;28;19968;-73
2021/11/13 09:30:46;;;;;;;;;;;;;;;6.63;75.00;96411.25;5076913;28;19954;-74
2021/11/13 09:33:13;;;;;;;;;;;;;;;6.96;72.83;96410.59;5077745;28;20314;-73
2021/11/13 09:35:40;;;;;;;;;;;;;;;7.24;71.70;96400.03;5077054;28;19972;-73
2021/11/13 09:38:07;;;;;;;;;;;;;;;7.45;72.40;96400.88;5075492;28;19957;-73
2021/11/13 09:40:33;;;;;;;;;;;;;;;7.60;70.87;96396.28;5076938;28;19954;-73
2021/11/13 09:43:01;;;;;;;;;;;;;;;7.52;70.01;96391.25;5076769;28;19962;-73
2021/11/13 09:45:27;;;;;;;;;;;;;;;7.40;69.96;96401.47;5076509;28;19958;-73
2021/11/13 09:47:54;;;;;;;;;;;;;;;7.28;69.85;96385.59;5076969;28;19959;-73
2021/11/13 09:50:22;;;;;;;;;;;;;;;7.19;71.42;96391.22;5076681;28;20388;-73
2021/11/13 09:52:48;;;;;;;;;;;;;;;7.03;69.54;96400.19;5076461;28;19963;-73
2021/11/13 09:55:15;;;;;;;;;;;;;;;6.93;71.46;96400.56;5076496;28;19993;-73
2021/11/13 09:57:41;;;;;;;;;;;;;;;6.83;72.18;96402.75;5076762;28;19953;-73
2021/11/13 10:00:09;;;;;;;;;;;;;;;6.77;72.29;96399.09;5076460;28;20326;-73
2021/11/13 10:02:35;;;;;;;;;;;;;;;6.71;72.86;96397.28;5076418;28;19972;-73
2021/11/13 10:05:02;;;;;;;;;;;;;;;6.67;72.44;96381.22;5076476;28;19958;-73
2021/11/13 10:07:30;;;;;;;;;;;;;;;6.68;73.67;96393.25;5076467;28;19957;-73
2021/11/13 10:09:56;;;;;;;;;;;;;;;6.73;73.46;96384.06;5075167;28;19953;-73
2021/11/13 10:12:35;;;;;;;;;;;;;;;6.75;73.50;96387.28;5076074;28;20008;-73
2021/11/13 10:15:00;;;;;;;;;;;;;;;6.80;73.79;96387.47;5075549;28;19951;-73
2021/11/13 10:17:26;;;;;;;;;;;;;;;6.86;73.19;96391.91;5075957;28;19959;-73
2021/11/13 10:19:53;;;;;;;;;;;;;;;6.92;74.48;96375.50;5076219;28;19958;-73
2021/11/13 10:22:19;;;;;;;;;;;;;;;6.97;74.20;96382.72;5076062;28;20408;-73
2021/11/13 10:24:47;;;;;;;;;;;;;;;7.04;74.24;96386.16;5075827;28;19978;-74
2021/11/13 10:27:13;;;;;;;;;;;;;;;7.10;74.21;96380.16;5061299;28;19953;-73
2021/11/13 10:29:39;;;;;;;;;;;;;;;7.17;74.75;96377.56;5075860;28;20390;-73
2021/11/13 10:32:08;;;;;;;;;;;;;;;7.25;74.50;96382.59;5075903;28;20022;-73
2021/11/13 10:34:40;;;;;;;;;;;;;;;7.27;73.78;96370.16;5075756;28;19952;-73
2021/11/13 10:37:11;;;;;;;;;;;;;;;7.30;73.13;96367.16;5075751;28;19961;-74
2021/11/13 10:39:38;;;;;;;;;;;;;;;7.33;73.42;96361.53;5076175;28;19952;-73
2021/11/13 10:42:06;;;;;;;;;;;;;;;7.38;71.92;96366.16;5075722;28;19955;-73
2021/11/13 10:44:37;;;;;;;;;;;;;;;7.41;73.19;96368.34;5076101;28;20421;-73
2021/11/13 10:47:11;;;;;;;;;;;;;;;7.40;72.75;96361.53;5075582;28;19946;-73
2021/11/13 10:49:37;;;;;;;;;;;;;;;7.37;72.81;96357.53;5075354;28;19962;-73
2021/11/13 10:52:05;;;;;;;;;;;;;;;7.35;73.69;96356.94;5076021;28;19987;-73
2021/11/13 10:54:31;;;;;;;;;;;;;;;7.38;72.53;96353.91;5075629;28;19990;-73
2021/11/13 10:56:57;;;;;;;;;;;;;;;7.39;72.79;96352.09;5075000;28;19968;-73
2021/11/13 10:59:43;;;;;;;;;;;;;;;7.41;74.26;96352.69;5075339;28;19961;-73
2021/11/13 11:02:11;;;;;;;;;;;;;;;7.42;74.05;96346.50;5074455;28;19950;-73
2021/11/13 11:04:38;;;;;;;;;;;;;;;7.44;74.00;96344.50;5075339;28;20322;-73
2021/11/13 11:07:09;;;;;;;;;;;;;;;7.45;72.83;96344.25;5075348;28;20403;-73
2021/11/13 11:09:38;;;;;;;;;;;;;;;7.47;74.20;96341.47;5075296;28;20416;-73
2021/11/13 11:12:14;;;;;;;;;;;;;;;7.49;74.49;96344.69;5074803;28;19961;-73
2021/11/13 11:14:42;;;;;;;;;;;;;;;7.47;74.12;96331.81;5075050;28;19950;-73
2021/11/13 11:17:13;;;;;;;;;;;;;;;7.47;74.23;96337.03;5075342;28;19955;-73
2021/11/13 11:19:40;;;;;;;;;;;;;;;7.47;73.94;96331.81;5075144;28;19955;-74
2021/11/13 11:22:13;;;;;;;;;;;;;;;7.47;74.09;96325.81;5073825;28;20300;-75
2021/11/13 11:24:41;;;;;;;;;;;;;;;7.48;74.12;96336.06;5074760;28;19972;-73
2021/11/13 11:27:08;;;;;;;;;;;;;;;7.48;74.06;96336.06;5074858;28;20437;-73
2021/11/13 11:29:36;;;;;;;;;;;;;;;7.51;74.69;96334.84;5074719;28;20440;-73
2021/11/13 11:32:05;;;;;;;;;;;;;;;7.50;74.16;96331.44;5074716;28;19981;-73
2021/11/13 11:34:31;;;;;;;;;;;;;;;7.49;74.34;96331.63;5074818;28;19973;-73
2021/11/13 11:36:59;;;;;;;;;;;;;;;7.49;74.25;96315.97;5074966;28;19960;-73
2021/11/13 11:39:25;;;;;;;;;;;;;;;7.52;75.12;96326.81;5074589;28;19962;-73
2021/11/13 11:41:52;;;;;;;;;;;;;;;7.58;74.85;96327.00;5074562;28;19953;-73
2021/11/13 11:44:18;;;;;;;;;;;;;;;7.63;75.37;96329.84;5074190;28;19975;-73
2021/11/13 11:46:44;;;;;;;;;;;;;;;7.67;75.19;96328.44;5074826;28;19957;-73
2021/11/13 11:49:12;;;;;;;;;;;;;;;7.70;74.88;96328.00;5074443;28;20421;-74
2021/11/13 11:51:38;;;;;;;;;;;;;;;7.75;74.91;96328.22;5074061;28;20318;-73
2021/11/13 11:54:05;;;;;;;;;;;;;;;7.76;75.11;96323.78;5074017;28;20456;-74
2021/11/13 11:56:31;;;;;;;;;;;;;;;7.79;75.16;96318.16;5074158;28;19962;-73
2021/11/13 11:58:59;;;;;;;;;;;;;;;7.80;75.43;96314.56;5074306;28;19957;-73
2021/11/13 12:01:29;;;;;;;;;;;;;;;7.82;75.93;96308.13;5074357;28;19956;-73
2021/11/13 12:04:14;;;;;;;;;;;;;;;7.87;75.86;96313.56;5073944;28;19982;-73
2021/11/13 12:06:50;;;;;;;;;;;;;;;7.90;75.72;96309.72;5073995;28;19959;-73
2021/11/13 12:09:17;;;;;;;;;;;;;;;7.94;75.91;96305.69;5074610;28;20046;-73
2021/11/13 12:11:44;;;;;;;;;;;;;;;7.97;76.35;96305.28;5073958;28;19962;-73
2021/11/13 12:14:23;;;;;;;;;;;;;;;8.04;76.64;96313.09;5073941;28;19968;-76
2021/11/13 12:16:52;;;;;;;;;;;;;;;8.09;77.31;96306.25;5074098;28;19960;-75
2021/11/13 12:19:18;;;;;;;;;;;;;;;8.18;76.93;96298.19;5073835;28;19960;-75
2021/11/13 12:21:54;;;;;;;;;;;;;;;8.27;76.99;96299.56;5074011;28;19957;-75
2021/11/13 12:24:20;;;;;;;;;;;;;;;8.34;77.01;96295.94;5073847;28;19968;-75
2021/11/13 12:27:00;;;;;;;;;;;;;;;8.43;76.48;96301.75;5074039;28;19958;-75
2021/11/13 12:29:26;;;;;;;;;;;;;;;8.47;76.40;96292.47;5073715;28;20413;-73
2021/11/13 12:31:55;;;;;;;;;;;;;;;8.51;76.23;96285.81;5073349;28;19962;-73
2021/11/13 12:34:24;;;;;;;;;;;;;;;8.54;76.91;96282.78;5073552;28;19964;-73
2021/11/13 12:36:58;;;;;;;;;;;;;;;8.58;76.64;96277.16;5073687;28;20351;-73
2021/11/13 12:39:24;;;;;;;;;;;;;;;8.61;76.99;96274.09;5073625;28;19957;-73
2021/11/13 12:41:54;;;;;;;;;;;;;;;8.64;77.18;96278.94;5073601;28;19963;-73
2021/11/13 12:44:26;;;;;;;;;;;;;;;8.66;77.66;96266.47;5072394;28;19973;-73
2021/11/13 12:46:55;;;;;;;;;;;;;;;8.70;77.70;96268.44;5073496;28;19955;-73
2021/11/13 12:49:25;;;;;;;;;;;;;;;8.74;77.86;96274.84;5074021;28;19958;-72
2021/11/13 12:51:50;;;;;;;;;;;;;;;8.78;77.15;96266.56;5073477;28;19975;-72
2021/11/13 12:54:33;;;;;;;;;;;;;;;8.79;77.15;96281.25;5073418;28;20423;-73
2021/11/13 12:57:05;;;;;;;;;;;;;;;8.82;77.17;96275.59;5073542;28;20276;-73